Time;durP1;ratioP1;P1;durP2;ratioP2;P2;SDS_P1;SDS_P2;PMS_P1;PMS_P2;Temp;Humidity;BMP_temperature;BMP_pressure;BME280_temperature;BME280_humidity;BME280_pressure;Samples;Min_cycle;Max_cycle;Signal;HPM_P1;HPM_P2
2022/11/04 00:02:03;;;;;;;12.87;5.77;;;10.40;66.00;;;;;;4932731;29;20442;-45
2022/11/04 00:04:29;;;;;;;13.13;5.63;;;10.40;78.90;;;;;;4933301;29;20229;-45
2022/11/04 00:06:56;;;;;;;16.93;6.10;;;10.40;99.90;;;;;;4933303;29;20522;-45
2022/11/04 00:09:28;;;;;;;9.63;6.80;;;10.40;99.90;;;;;;4933800;29;20457;-46
2022/11/04 00:14:38;;;;;;;11.17;5.73;;;10.40;99.90;;;;;;4933598;29;20806;-46
2022/11/04 00:17:21;;;;;;;10.90;6.37;;;10.30;1.00;;;;;;4934826;29;20469;-46
2022/11/04 00:33:49;;;;;;;12.53;6.90;;;10.20;1.00;;;;;;4928523;29;20472;-46
2022/11/04 00:36:15;;;;;;;9.07;5.83;;;10.20;1.00;;;;;;4931978;29;20484;-46
2022/11/04 00:38:41;;;;;;;7.97;5.70;;;10.20;99.90;;;;;;4924755;29;20805;-45
2022/11/04 00:41:24;;;;;;;14.70;6.83;;;10.20;99.90;;;;;;4928680;29;20186;-45
2022/11/04 00:43:51;;;;;;;10.37;6.23;;;10.20;1.00;;;;;;4932968;29;20526;-46
2022/11/04 00:46:17;;;;;;;11.83;6.17;;;10.20;99.90;;;;;;4931129;29;20957;-47
2022/11/04 00:48:42;;;;;;;10.23;6.57;;;10.20;99.90;;;;;;4933707;29;20583;-46
2022/11/04 00:51:08;;;;;;;10.43;6.20;;;10.20;99.90;;;;;;4927637;29;20866;-44
2022/11/04 00:53:34;;;;;;;13.17;6.70;;;10.30;99.90;;;;;;4932840;29;20190;-45
2022/11/04 00:55:59;;;;;;;13.47;6.20;;;10.20;1.00;;;;;;4932034;29;20210;-45
2022/11/04 00:58:26;;;;;;;13.87;6.60;;;10.30;1.00;;;;;;4931768;29;20523;-52
2022/11/04 01:00:52;;;;;;;17.83;6.93;;;10.40;1.00;;;;;;4930433;29;20290;-44
2022/11/04 01:03:18;;;;;;;11.23;6.90;;;10.30;1.00;;;;;;4934490;29;20437;-45
2022/11/04 01:05:43;;;;;;;9.27;6.80;;;10.40;99.90;;;;;;4928654;29;20186;-45
2022/11/04 01:08:09;;;;;;;9.40;6.13;;;10.40;99.90;;;;;;4933662;29;20269;-46
2022/11/04 01:10:43;;;;;;;11.83;6.17;;;10.50;99.90;;;;;;4933850;29;20201;-45
2022/11/04 01:13:12;;;;;;;15.60;6.63;;;10.50;99.90;;;;;;4933587;29;20190;-49
2022/11/04 01:15:38;;;;;;;9.17;6.20;;;10.40;99.90;;;;;;4933925;29;20440;-46
2022/11/04 01:18:04;;;;;;;13.37;6.60;;;10.50;99.90;;;;;;4932933;29;20478;-46
2022/11/04 01:20:31;;;;;;;10.40;6.70;;;10.50;99.90;;;;;;4929911;29;21367;-46
2022/11/04 01:22:57;;;;;;;9.00;6.07;;;10.50;99.90;;;;;;4931094;29;21040;-47
2022/11/04 01:25:23;;;;;;;11.00;6.20;;;10.50;1.00;;;;;;4933458;29;20455;-47
2022/11/04 01:27:48;;;;;;;11.67;6.33;;;10.60;76.90;;;;;;4934754;29;20865;-46
2022/11/04 01:30:14;;;;;;;11.80;7.00;;;10.60;7.30;;;;;;4931257;29;20297;-47
2022/11/04 01:32:40;;;;;;;10.10;5.80;;;10.70;1.00;;;;;;4933272;29;20237;-46
2022/11/04 01:35:06;;;;;;;13.30;6.60;;;10.70;1.00;;;;;;4933353;29;20182;-46
2022/11/04 01:37:32;;;;;;;14.50;6.47;;;10.60;99.90;;;;;;4933991;29;20202;-46
2022/11/04 01:39:58;;;;;;;9.50;6.50;;;10.60;99.90;;;;;;4922621;29;20453;-47
2022/11/04 01:42:24;;;;;;;11.90;6.40;;;10.70;99.90;;;;;;4925710;29;20194;-47
2022/11/04 01:44:58;;;;;;;15.97;6.43;;;10.60;99.90;;;;;;4933431;29;20988;-46
2022/11/04 01:47:34;;;;;;;16.43;7.07;;;10.60;1.00;;;;;;4930150;29;20222;-46
2022/11/04 01:50:16;;;;;;;12.60;6.30;;;10.70;1.00;;;;;;4914873;29;20430;-47
2022/11/04 01:52:49;;;;;;;9.30;6.50;;;10.70;99.90;;;;;;4932717;29;20442;-46
2022/11/04 01:55:39;;;;;;;12.50;6.43;;;10.70;99.90;;;;;;4933164;29;20890;-46
2022/11/04 01:58:09;;;;;;;12.20;6.30;;;10.70;55.60;;;;;;4929411;29;20500;-47
2022/11/04 02:00:38;;;;;;;14.87;6.80;;;10.80;28.00;;;;;;4933061;29;20785;-46
2022/11/04 02:03:12;;;;;;;10.37;6.40;;;10.80;1.00;;;;;;4923200;29;20441;-47
2022/11/04 02:05:38;;;;;;;12.43;5.87;;;10.80;1.00;;;;;;4933407;29;20797;-46
2022/11/04 02:08:05;;;;;;;9.13;5.90;;;10.80;99.90;;;;;;4932749;29;20445;-47
2022/11/04 02:10:32;;;;;;;8.90;6.03;;;10.70;99.90;;;;;;4934010;29;20548;-46
2022/11/04 02:13:01;;;;;;;13.50;7.00;;;10.70;1.00;;;;;;4933519;29;20446;-47
2022/11/04 02:15:51;;;;;;;13.57;6.23;;;10.70;38.10;;;;;;4935968;29;20454;-47
2022/11/04 02:18:31;;;;;;;12.53;6.10;;;10.70;99.90;;;;;;4937068;29;20437;-46
2022/11/04 02:21:34;;;;;;;8.73;6.37;;;10.70;99.90;;;;;;4937694;29;20501;-47
2022/11/04 02:24:18;;;;;;;9.10;6.10;;;10.70;99.90;;;;;;4935029;29;20574;-48
2022/11/04 02:27:14;;;;;;;9.93;6.03;;;10.70;1.00;;;;;;4933531;29;20441;-47
2022/11/04 02:30:04;;;;;;;9.87;6.50;;;10.60;1.00;;;;;;4933445;29;20441;-46
2022/11/04 02:32:43;;;;;;;12.63;7.30;;;10.70;99.90;;;;;;4935274;29;20426;-47
2022/11/04 02:35:32;;;;;;;11.33;6.30;;;10.70;1.00;;;;;;4936714;29;20414;-47
2022/11/04 02:38:31;;;;;;;9.90;6.50;;;10.70;1.00;;;;;;4937141;29;20491;-46
2022/11/04 02:41:03;;;;;;;11.30;6.20;;;10.80;1.00;;;;;;4935318;29;20442;-47
2022/11/04 02:44:10;;;;;;;12.90;6.20;;;10.80;51.20;;;;;;4936114;29;20472;-47
2022/11/04 02:46:40;;;;;;;8.07;5.97;;;10.80;99.90;;;;;;4935233;29;20452;-47
2022/11/04 02:49:16;;;;;;;11.37;6.47;;;10.70;1.00;;;;;;4935689;29;21360;-47
2022/11/04 02:51:58;;;;;;;9.70;6.90;;;10.70;99.90;;;;;;4936146;29;20442;-47
2022/11/04 02:54:55;;;;;;;11.10;6.60;;;10.70;99.90;;;;;;4936474;29;20457;-48
2022/11/04 02:57:26;;;;;;;9.67;6.87;;;10.70;1.00;;;;;;4931091;29;20562;-48
2022/11/04 03:00:05;;;;;;;12.57;6.50;;;10.80;99.90;;;;;;4935362;29;20955;-47
2022/11/04 03:02:45;;;;;;;10.93;7.00;;;10.80;1.00;;;;;;4931179;29;20479;-47
2022/11/04 03:05:16;;;;;;;7.80;6.13;;;10.80;1.00;;;;;;4935062;29;20422;-48
2022/11/04 03:07:43;;;;;;;10.03;6.90;;;10.90;1.00;;;;;;4932804;29;20442;-48
2022/11/04 03:10:23;;;;;;;8.97;6.63;;;10.90;1.00;;;;;;4935478;29;20489;-48
2022/11/04 03:13:01;;;;;;;11.60;7.10;;;11.00;12.70;;;;;;4935752;29;20445;-47
2022/11/04 03:15:31;;;;;;;11.80;6.63;;;11.10;52.60;;;;;;4935013;29;20465;-48
2022/11/04 03:18:18;;;;;;;8.20;6.50;;;11.10;59.70;;;;;;4934741;29;20568;-48
2022/11/04 03:20:47;;;;;;;12.03;6.57;;;11.10;29.20;;;;;;4929587;29;20516;-48
2022/11/04 03:23:14;;;;;;;11.33;5.97;;;11.10;22.50;;;;;;4930197;29;20797;-47
2022/11/04 03:25:46;;;;;;;7.43;5.63;;;11.20;10.20;;;;;;4932145;29;20517;-48
2022/11/04 03:28:30;;;;;;;11.40;7.10;;;11.20;1.00;;;;;;4931680;29;20438;-48
2022/11/04 03:31:00;;;;;;;11.77;7.00;;;11.20;1.00;;;;;;4932690;29;20481;-47
2022/11/04 03:33:29;;;;;;;9.30;6.53;;;11.20;1.00;;;;;;4931066;29;20913;-48
2022/11/04 03:35:55;;;;;;;10.03;7.13;;;11.20;1.00;;;;;;4931917;29;20435;-47
2022/11/04 03:38:22;;;;;;;12.50;7.43;;;11.20;1.00;;;;;;4931765;29;20518;-48
2022/11/04 03:40:48;;;;;;;11.83;7.30;;;11.30;25.40;;;;;;4933562;29;20442;-48
2022/11/04 03:43:19;;;;;;;13.50;6.93;;;11.30;31.70;;;;;;4935358;29;20450;-48
2022/11/04 03:45:45;;;;;;;12.80;7.43;;;11.30;39.80;;;;;;4933146;29;20825;-48
2022/11/04 03:48:12;;;;;;;12.60;7.90;;;11.30;31.90;;;;;;4933914;29;20486;-48
2022/11/04 03:50:49;;;;;;;10.27;7.27;;;11.40;29.20;;;;;;4933924;29;20465;-48
2022/11/04 03:53:21;;;;;;;13.40;7.80;;;11.40;3.70;;;;;;4931664;29;20444;-48
2022/11/04 03:55:52;;;;;;;11.50;7.10;;;11.50;1.00;;;;;;4934908;29;20528;-48
2022/11/04 03:58:47;;;;;;;11.83;7.50;;;11.50;1.00;;;;;;4934982;29;20513;-48
2022/11/04 04:01:12;;;;;;;11.80;7.73;;;11.50;1.00;;;;;;4933943;29;20458;-49
2022/11/04 04:04:03;;;;;;;12.70;7.57;;;11.40;1.00;;;;;;4934762;29;21130;-48
2022/11/04 04:06:34;;;;;;;11.07;8.07;;;11.40;1.00;;;;;;4934994;29;20186;-47
2022/11/04 04:09:12;;;;;;;11.60;7.90;;;11.40;1.00;;;;;;4934191;29;20449;-48
2022/11/04 04:11:54;;;;;;;10.47;7.77;;;11.40;1.00;;;;;;4920522;29;20446;-48
2022/11/04 04:14:38;;;;;;;12.50;7.27;;;11.50;1.00;;;;;;4935608;29;20513;-48
2022/11/04 04:17:06;;;;;;;9.00;6.87;;;11.50;1.00;;;;;;4934569;29;20529;-47
2022/11/04 04:19:33;;;;;;;8.80;6.90;;;11.50;1.00;;;;;;4933402;29;20533;-49
2022/11/04 04:22:08;;;;;;;8.07;6.30;;;11.50;1.00;;;;;;4933024;29;20446;-47
2022/11/04 04:27:31;;;;;;;14.63;6.33;;;11.50;1.00;;;;;;4929024;29;20521;-46
2022/11/04 04:30:04;;;;;;;9.70;6.20;;;11.50;1.00;;;;;;4928891;29;20528;-46
2022/11/04 04:32:41;;;;;;;6.50;4.93;;;11.50;1.00;;;;;;4928096;29;20457;-46
2022/11/04 04:44:58;;;;;;;5.20;4.60;;;11.60;1.00;;;;;;4930778;29;20469;-45
2022/11/04 04:46:28;;;;;;;5.10;3.93;;;11.70;1.00;;;;;;4942446;29;20442;-46
2022/11/04 04:48:54;;;;;;;4.20;3.80;;;11.70;1.00;;;;;;4934045;29;20573;-46
2022/11/04 04:51:21;;;;;;;3.40;3.10;;;11.80;99.90;;;;;;4934317;29;20446;-45
2022/11/04 04:53:46;;;;;;;2.97;2.70;;;11.80;99.90;;;;;;4932749;29;20446;-46
2022/11/04 04:56:12;;;;;;;3.17;2.80;;;11.70;99.90;;;;;;4933868;29;20474;-46
2022/11/04 04:58:38;;;;;;;4.17;2.60;;;11.70;99.90;;;;;;4929494;29;20182;-46
2022/11/04 05:01:04;;;;;;;4.80;2.90;;;11.70;99.90;;;;;;4933811;29;20233;-46
2022/11/04 05:03:29;;;;;;;5.80;3.00;;;11.70;99.90;;;;;;4933871;29;20194;-45
2022/11/04 05:05:57;;;;;;;4.40;2.70;;;11.70;99.90;;;;;;4932906;29;20567;-45
2022/11/04 05:08:23;;;;;;;4.33;2.77;;;11.70;99.90;;;;;;4933482;29;20258;-45
2022/11/04 05:10:49;;;;;;;3.80;3.03;;;11.70;99.90;;;;;;4934024;29;20783;-47
2022/11/04 05:13:28;;;;;;;4.10;3.10;;;11.70;99.90;;;;;;4930835;29;20208;-46
2022/11/04 05:15:53;;;;;;;2.60;2.40;;;11.70;99.90;;;;;;4929641;29;20281;-45
2022/11/04 05:18:19;;;;;;;2.70;2.50;;;11.60;98.40;;;;;;4933016;29;20446;-46
2022/11/04 05:20:45;;;;;;;3.40;2.30;;;11.70;79.70;;;;;;4932518;29;20532;-46
2022/11/04 05:23:11;;;;;;;3.07;2.60;;;11.70;91.00;;;;;;4932745;29;20277;-45
2022/11/04 05:25:40;;;;;;;3.40;2.37;;;11.70;82.20;;;;;;4933038;29;20209;-45
2022/11/04 05:28:07;;;;;;;4.43;2.30;;;11.60;90.50;;;;;;4933704;29;20446;-45
2022/11/04 05:30:33;;;;;;;2.73;2.47;;;11.60;87.80;;;;;;4932608;29;21075;-45
2022/11/04 05:32:59;;;;;;;2.87;2.67;;;11.60;99.90;;;;;;4932831;29;20448;-45
2022/11/04 05:35:24;;;;;;;3.70;2.47;;;11.60;94.20;;;;;;4932009;29;20442;-46
2022/11/04 05:37:50;;;;;;;8.30;3.50;;;11.60;78.10;;;;;;4933417;29;20210;-45
2022/11/04 05:40:16;;;;;;;4.23;2.90;;;11.60;70.00;;;;;;4933803;29;20198;-45
2022/11/04 05:42:41;;;;;;;6.60;3.40;;;11.60;70.70;;;;;;4934059;29;20202;-45
2022/11/04 05:45:07;;;;;;;4.47;2.63;;;11.50;90.30;;;;;;4931208;29;20198;-45
2022/11/04 05:47:33;;;;;;;3.53;2.60;;;11.50;95.40;;;;;;4932453;29;20234;-45
2022/11/04 05:49:59;;;;;;;4.67;3.60;;;11.50;99.90;;;;;;4933777;29;20510;-45
2022/11/04 05:52:25;;;;;;;3.20;2.70;;;11.50;99.90;;;;;;4933136;29;20260;-46
2022/11/04 05:54:51;;;;;;;3.33;3.03;;;11.50;99.90;;;;;;4933361;29;20854;-46
2022/11/04 05:57:16;;;;;;;3.00;2.73;;;11.50;99.90;;;;;;4932821;29;20716;-46
2022/11/04 05:59:42;;;;;;;5.90;3.33;;;11.50;99.90;;;;;;4933319;29;20198;-45
2022/11/04 06:02:08;;;;;;;3.63;3.10;;;11.50;99.90;;;;;;4931349;29;20202;-46
2022/11/04 06:04:34;;;;;;;6.90;3.40;;;11.50;99.90;;;;;;4933725;29;20574;-45
2022/11/04 06:06:59;;;;;;;4.80;3.87;;;11.50;99.90;;;;;;4931904;29;20504;-46
2022/11/04 06:09:37;;;;;;;7.97;3.60;;;11.50;99.90;;;;;;4933209;29;20720;-46
2022/11/04 06:12:13;;;;;;;4.30;3.90;;;11.40;99.90;;;;;;4930865;29;20194;-45
2022/11/04 06:14:39;;;;;;;3.97;3.53;;;11.40;99.90;;;;;;4933094;29;20468;-45
2022/11/04 06:17:05;;;;;;;3.97;3.50;;;11.40;99.90;;;;;;4931900;29;20474;-45
2022/11/04 06:19:30;;;;;;;5.03;4.10;;;11.50;99.90;;;;;;4927927;29;20540;-44
2022/11/04 06:21:56;;;;;;;6.77;3.70;;;11.50;99.90;;;;;;4932862;29;20194;-44
2022/11/04 06:24:22;;;;;;;7.30;4.10;;;11.40;99.90;;;;;;4933281;29;20190;-46
2022/11/04 06:26:47;;;;;;;4.30;3.90;;;11.40;99.90;;;;;;4931705;29;20190;-45
2022/11/04 06:29:13;;;;;;;6.20;4.00;;;11.30;99.90;;;;;;4932394;29;20574;-46
2022/11/04 06:31:39;;;;;;;7.40;3.60;;;11.30;99.90;;;;;;4932421;29;20589;-46
2022/11/04 06:34:04;;;;;;;4.70;4.30;;;11.30;99.90;;;;;;4932027;29;20268;-46
2022/11/04 06:36:30;;;;;;;7.43;4.00;;;11.30;99.90;;;;;;4931574;29;20560;-46
2022/11/04 06:38:55;;;;;;;5.47;4.03;;;11.30;99.90;;;;;;4932415;29;20190;-46
2022/11/04 06:41:21;;;;;;;4.33;3.93;;;11.30;99.90;;;;;;4931006;29;20192;-46
2022/11/04 06:43:46;;;;;;;5.03;4.53;;;11.30;99.90;;;;;;4929191;29;20194;-47
2022/11/04 06:46:27;;;;;;;8.40;4.43;;;11.20;99.90;;;;;;4923813;29;20199;-47
2022/11/04 06:48:54;;;;;;;5.03;4.50;;;11.20;99.90;;;;;;4930874;29;20603;-47
2022/11/04 06:51:20;;;;;;;4.50;4.10;;;11.10;99.90;;;;;;4933495;29;20415;-44
2022/11/04 06:53:46;;;;;;;6.47;4.77;;;11.10;99.90;;;;;;4930986;29;20784;-46
2022/11/04 06:56:11;;;;;;;6.40;4.73;;;11.10;99.90;;;;;;4933038;29;20191;-46
2022/11/04 06:58:37;;;;;;;7.33;5.10;;;11.20;99.90;;;;;;4935522;29;20537;-47
2022/11/04 07:01:02;;;;;;;6.03;5.00;;;11.10;99.90;;;;;;4934722;29;20190;-46
2022/11/04 07:03:28;;;;;;;11.43;5.60;;;11.00;99.90;;;;;;4936733;29;20182;-45
2022/11/04 07:05:54;;;;;;;6.80;5.83;;;11.00;99.90;;;;;;4936717;29;20186;-47
2022/11/04 07:08:19;;;;;;;6.23;4.90;;;11.10;99.90;;;;;;4936292;29;20799;-46
2022/11/04 07:10:45;;;;;;;7.80;5.63;;;11.10;99.90;;;;;;4936519;29;20186;-46
2022/11/04 07:13:11;;;;;;;6.53;5.30;;;11.10;99.90;;;;;;4933975;29;20813;-47
2022/11/04 07:15:38;;;;;;;7.40;5.63;;;11.10;99.90;;;;;;4933939;29;20273;-45
2022/11/04 07:18:05;;;;;;;7.20;5.60;;;11.10;99.90;;;;;;4935455;29;20222;-48
2022/11/04 07:20:32;;;;;;;9.07;5.60;;;11.10;99.90;;;;;;4936052;29;20469;-47
2022/11/04 07:22:58;;;;;;;8.37;5.80;;;11.20;99.90;;;;;;4935091;29;20513;-45
2022/11/04 07:25:23;;;;;;;9.77;6.20;;;11.20;99.90;;;;;;4935353;29;20604;-46
2022/11/04 07:27:49;;;;;;;7.10;5.63;;;11.20;99.90;;;;;;4935849;29;20289;-44
2022/11/04 07:30:14;;;;;;;6.97;6.03;;;11.20;99.90;;;;;;4933479;29;20194;-46
2022/11/04 07:32:40;;;;;;;7.43;6.60;;;11.20;99.90;;;;;;4934681;29;20293;-45
2022/11/04 07:35:06;;;;;;;7.53;6.43;;;11.20;99.90;;;;;;4934871;29;20693;-45
2022/11/04 07:37:31;;;;;;;7.10;5.50;;;11.10;99.90;;;;;;4932654;29;20213;-46
2022/11/04 07:39:57;;;;;;;8.60;6.20;;;11.10;99.90;;;;;;4936269;29;20965;-47
2022/11/04 07:42:23;;;;;;;8.80;6.23;;;11.10;99.90;;;;;;4936098;29;20183;-45
2022/11/04 07:44:48;;;;;;;8.17;6.17;;;11.10;99.90;;;;;;4932465;29;20183;-45
2022/11/04 07:47:14;;;;;;;8.13;6.40;;;11.10;99.90;;;;;;4935813;29;20249;-45
2022/11/04 07:49:39;;;;;;;10.40;7.03;;;11.00;1.00;;;;;;4935672;29;20209;-45
2022/11/04 07:52:05;;;;;;;8.50;6.40;;;11.10;1.00;;;;;;4935720;29;20330;-45
2022/11/04 07:54:30;;;;;;;7.93;6.70;;;11.10;1.00;;;;;;4935595;29;20178;-45
2022/11/04 07:56:57;;;;;;;11.20;7.77;;;11.10;1.00;;;;;;4935661;29;20218;-46
2022/11/04 07:59:22;;;;;;;9.10;7.50;;;11.10;99.90;;;;;;4935514;29;20630;-46
2022/11/04 08:01:48;;;;;;;11.60;7.70;;;11.20;99.90;;;;;;4931563;29;20458;-45
2022/11/04 08:04:13;;;;;;;13.10;7.40;;;11.20;99.90;;;;;;4935476;29;20195;-45
2022/11/04 08:06:39;;;;;;;9.17;7.20;;;11.30;99.90;;;;;;4935399;29;20222;-45
2022/11/04 08:09:04;;;;;;;10.40;7.60;;;11.30;99.90;;;;;;4934954;29;20656;-45
2022/11/04 08:11:30;;;;;;;11.03;6.90;;;11.20;99.90;;;;;;4935489;29;20242;-46
2022/11/04 08:13:56;;;;;;;9.63;7.50;;;11.30;99.90;;;;;;4935442;29;20193;-46
2022/11/04 08:16:24;;;;;;;11.20;7.37;;;11.30;99.90;;;;;;4935659;29;20210;-45
2022/11/04 08:18:51;;;;;;;10.33;7.23;;;11.30;99.90;;;;;;4924795;29;20218;-45
2022/11/04 08:21:18;;;;;;;10.17;7.60;;;11.40;99.90;;;;;;4933701;29;20434;-46
2022/11/04 08:23:44;;;;;;;9.70;7.47;;;11.40;99.90;;;;;;4935190;29;20458;-45
2022/11/04 08:26:16;;;;;;;8.30;6.43;;;11.40;99.90;;;;;;4935186;29;20434;-45
2022/11/04 08:28:42;;;;;;;10.83;6.80;;;11.40;99.90;;;;;;4934106;29;20438;-45
2022/11/04 08:31:17;;;;;;;10.57;7.87;;;11.40;99.90;;;;;;4934937;29;20422;-45
2022/11/04 08:33:44;;;;;;;8.20;7.30;;;11.50;99.90;;;;;;4935443;29;20433;-45
2022/11/04 08:36:16;;;;;;;10.27;7.40;;;11.40;99.90;;;;;;4934771;29;20855;-45
2022/11/04 08:38:43;;;;;;;8.50;6.57;;;11.30;99.90;;;;;;4929640;29;20460;-45
2022/11/04 08:41:10;;;;;;;9.00;7.40;;;11.40;99.90;;;;;;4934959;29;20529;-46
2022/11/04 08:43:35;;;;;;;14.60;6.93;;;11.50;99.90;;;;;;4934218;29;20478;-45
2022/11/04 08:46:03;;;;;;;8.60;6.60;;;11.50;99.90;;;;;;4934722;29;20430;-46
2022/11/04 08:48:29;;;;;;;7.20;6.50;;;11.60;99.90;;;;;;4933746;29;20604;-46
2022/11/04 08:50:57;;;;;;;9.40;7.00;;;11.70;99.90;;;;;;4934981;29;20414;-46
2022/11/04 08:53:23;;;;;;;8.30;6.73;;;11.60;99.90;;;;;;4934938;29;20270;-46
2022/11/04 08:55:49;;;;;;;8.70;6.37;;;11.60;99.90;;;;;;4935022;29;20835;-44
2022/11/04 08:58:16;;;;;;;9.77;6.63;;;11.50;91.70;;;;;;4934870;29;20254;-45
2022/11/04 09:00:41;;;;;;;8.37;6.47;;;11.50;80.90;;;;;;4921571;29;20483;-45
2022/11/04 09:03:07;;;;;;;6.80;6.10;;;11.50;95.20;;;;;;4915691;29;20400;-45
2022/11/04 09:05:35;;;;;;;14.17;6.60;;;11.60;94.40;;;;;;4915746;29;20171;-44
2022/11/04 09:08:01;;;;;;;12.87;6.60;;;11.70;88.50;;;;;;4915824;29;20194;-44
2022/11/04 09:10:27;;;;;;;6.73;6.03;;;11.60;51.80;;;;;;4915689;29;20425;-44
2022/11/04 09:12:53;;;;;;;10.63;6.77;;;11.60;35.80;;;;;;4915702;29;20630;-45
2022/11/04 09:15:18;;;;;;;8.40;6.20;;;11.60;37.60;;;;;;4915598;29;20423;-45
2022/11/04 09:17:44;;;;;;;8.90;6.60;;;11.80;25.20;;;;;;4915584;29;20262;-45
2022/11/04 09:20:11;;;;;;;8.10;6.53;;;11.80;10.80;;;;;;4914919;29;20179;-44
2022/11/04 09:22:36;;;;;;;7.93;6.60;;;11.80;2.80;;;;;;4915497;29;20597;-45
2022/11/04 09:25:02;;;;;;;9.07;6.00;;;11.90;1.00;;;;;;4915403;29;20502;-45
2022/11/04 09:27:28;;;;;;;7.17;5.60;;;12.00;1.00;;;;;;4915291;29;20206;-45
2022/11/04 09:29:54;;;;;;;6.87;5.37;;;12.00;1.00;;;;;;4915455;29;20191;-46
2022/11/04 09:32:19;;;;;;;8.10;5.43;;;12.00;1.00;;;;;;4915125;29;20411;-45
2022/11/04 09:34:45;;;;;;;6.77;5.03;;;11.90;1.00;;;;;;4915691;29;20171;-44
2022/11/04 09:37:10;;;;;;;5.07;4.57;;;11.80;1.00;;;;;;4915220;29;20675;-45
2022/11/04 09:39:36;;;;;;;6.80;5.60;;;11.70;1.00;;;;;;4915139;29;20510;-46
2022/11/04 09:42:24;;;;;;;6.37;5.40;;;11.70;1.00;;;;;;4915228;29;20167;-46
2022/11/04 09:44:57;;;;;;;5.27;4.70;;;11.70;1.00;;;;;;4915098;29;20179;-47
2022/11/04 09:47:24;;;;;;;5.10;4.20;;;11.80;1.00;;;;;;4914611;29;20869;-45
2022/11/04 09:49:54;;;;;;;5.10;4.60;;;11.80;1.00;;;;;;4915195;29;20418;-47
2022/11/04 09:52:33;;;;;;;5.93;4.67;;;11.90;1.00;;;;;;4914892;29;20434;-46
2022/11/04 09:55:05;;;;;;;9.40;5.50;;;11.90;1.00;;;;;;4915255;29;20411;-47
2022/11/04 09:57:31;;;;;;;5.50;4.73;;;12.00;1.00;;;;;;4915040;29;20550;-46
2022/11/04 09:59:58;;;;;;;7.53;5.13;;;12.10;1.00;;;;;;4915135;29;20469;-47
2022/11/04 10:02:42;;;;;;;14.10;9.07;;;12.20;1.00;;;;;;4915051;29;20458;-46
2022/11/04 10:05:33;;;;;;;5.93;5.30;;;12.40;1.00;;;;;;4914797;29;20825;-46
2022/11/04 10:07:59;;;;;;;8.80;6.10;;;12.40;1.00;;;;;;4914991;29;20827;-46
2022/11/04 10:10:30;;;;;;;8.20;5.83;;;12.50;1.00;;;;;;4914775;29;20546;-46
2022/11/04 10:13:27;;;;;;;5.60;4.80;;;12.60;1.00;;;;;;4913719;29;20183;-47
2022/11/04 10:16:08;;;;;;;5.20;4.43;;;12.70;1.00;;;;;;4913582;29;20454;-46
2022/11/04 10:18:45;;;;;;;5.40;4.57;;;12.70;1.00;;;;;;4914810;29;21024;-47
2022/11/04 10:21:43;;;;;;;6.87;4.67;;;12.90;1.00;;;;;;4914795;29;20422;-47
2022/11/04 10:24:15;;;;;;;4.87;3.77;;;13.90;1.00;;;;;;4914772;29;20419;-46
2022/11/04 10:26:46;;;;;;;17.17;5.83;;;14.90;1.00;;;;;;4915501;29;20893;-47
2022/11/04 10:29:25;;;;;;;7.27;4.50;;;15.50;1.00;;;;;;4932094;29;20438;-46
2022/11/04 10:31:53;;;;;;;7.60;4.33;;;15.80;1.00;;;;;;4928381;29;20446;-46
2022/11/04 10:34:24;;;;;;;9.87;6.07;;;16.30;1.00;;;;;;4918597;29;20513;-46
2022/11/04 10:36:51;;;;;;;7.60;4.00;;;16.80;1.00;;;;;;4918335;29;21109;-45
2022/11/04 10:39:26;;;;;;;7.33;4.63;;;16.70;1.00;;;;;;4918407;29;20551;-45
2022/11/04 10:41:52;;;;;;;7.27;3.27;;;17.30;1.00;;;;;;4918321;29;20391;-46
2022/11/04 10:44:24;;;;;;;4.73;2.93;;;18.10;1.00;;;;;;4918195;29;20437;-46
2022/11/04 10:47:13;;;;;;;4.20;3.57;;;19.00;1.00;;;;;;4927870;29;20230;-46
2022/11/04 10:49:48;;;;;;;4.97;3.40;;;18.90;1.00;;;;;;4937344;29;20435;-45
2022/11/04 10:52:14;;;;;;;3.57;2.60;;;18.10;1.00;;;;;;4937067;29;20413;-46
2022/11/04 10:54:43;;;;;;;6.13;2.33;;;17.50;1.00;;;;;;4937268;29;20418;-46
2022/11/04 10:57:11;;;;;;;2.57;2.37;;;17.30;1.00;;;;;;4936994;29;20469;-45
2022/11/04 10:59:52;;;;;;;3.80;2.67;;;17.50;1.00;;;;;;4936964;29;20418;-46
2022/11/04 11:02:17;;;;;;;3.40;2.20;;;17.90;1.00;;;;;;4936905;29;20394;-46
2022/11/04 11:04:45;;;;;;;3.93;2.70;;;18.50;1.00;;;;;;4937026;29;20417;-46
2022/11/04 11:07:18;;;;;;;3.37;2.80;;;18.80;1.00;;;;;;4936905;29;20201;-46
2022/11/04 11:09:52;;;;;;;4.00;2.60;;;19.00;1.00;;;;;;4936685;29;20413;-46
2022/11/04 11:12:27;;;;;;;4.23;2.60;;;20.10;1.00;;;;;;4936742;29;20755;-45
2022/11/04 11:14:53;;;;;;;5.33;2.47;;;20.50;1.00;;;;;;4936654;29;20484;-46
2022/11/04 11:17:34;;;;;;;2.27;2.00;;;20.70;1.00;;;;;;4936769;29;20561;-45
2022/11/04 11:20:21;;;;;;;2.53;2.33;;;20.30;1.00;;;;;;4936711;29;20178;-46
2022/11/04 11:22:50;;;;;;;2.57;2.17;;;20.10;1.00;;;;;;4936575;29;20885;-45
2022/11/04 11:25:32;;;;;;;2.83;2.10;;;19.40;1.00;;;;;;4935169;29;20480;-46
2022/11/04 11:27:59;;;;;;;4.03;2.10;;;18.90;1.00;;;;;;4930890;29;20411;-46
2022/11/04 11:30:48;;;;;;;4.00;1.70;;;19.40;1.00;;;;;;4933592;29;20937;-45
2022/11/04 11:33:36;;;;;;;2.93;1.87;;;19.40;1.00;;;;;;4926443;29;20454;-45
2022/11/04 11:36:13;;;;;;;3.67;2.17;;;18.90;1.00;;;;;;4923721;29;20446;-45
2022/11/04 11:38:53;;;;;;;3.00;2.07;;;19.40;1.00;;;;;;4931793;29;21088;-46
2022/11/04 11:41:22;;;;;;;2.10;1.43;;;20.40;1.00;;;;;;4917225;29;20792;-46
2022/11/04 11:43:53;;;;;;;2.30;1.37;;;21.50;1.00;;;;;;4916409;29;20439;-46
2022/11/04 11:46:34;;;;;;;3.03;1.70;;;22.00;1.00;;;;;;4930094;29;20469;-46
2022/11/04 11:49:04;;;;;;;1.90;1.53;;;21.50;1.00;;;;;;4930142;29;20502;-43
2022/11/04 11:51:37;;;;;;;4.20;1.60;;;21.20;1.00;;;;;;4926714;29;20572;-44
2022/11/04 11:54:24;;;;;;;2.13;0.97;;;21.00;1.00;;;;;;4936229;29;20422;-44
2022/11/04 11:56:55;;;;;;;2.80;1.00;;;19.70;1.00;;;;;;4930343;29;20584;-44
2022/11/04 11:59:33;;;;;;;3.60;1.53;;;18.40;1.00;;;;;;4922090;29;20427;-44
2022/11/04 12:02:31;;;;;;;2.47;1.30;;;17.10;1.00;;;;;;4927092;29;20521;-43
2022/11/04 12:04:57;;;;;;;2.37;1.20;;;16.00;1.00;;;;;;4935923;29;20919;-44
2022/11/04 12:07:35;;;;;;;1.23;0.93;;;15.50;1.00;;;;;;4935100;29;20431;-44
2022/11/04 12:10:06;;;;;;;5.00;1.40;;;15.40;1.00;;;;;;4934908;29;20218;-44
2022/11/04 12:12:49;;;;;;;5.67;1.27;;;15.70;1.00;;;;;;4927075;29;20419;-44
2022/11/04 12:16:01;;;;;;;4.30;1.90;;;15.70;1.00;;;;;;4934169;29;20449;-44
2022/11/04 12:19:00;;;;;;;7.30;1.20;;;15.20;1.00;;;;;;4923714;29;20490;-44
2022/11/04 12:21:34;;;;;;;4.57;1.33;;;14.80;1.00;;;;;;4914281;29;20420;-44
2022/11/04 12:24:40;;;;;;;5.97;1.80;;;14.60;1.00;;;;;;4929043;29;20481;-45
2022/11/04 12:27:18;;;;;;;5.77;1.43;;;14.50;1.00;;;;;;4935512;29;20565;-44
2022/11/04 12:29:52;;;;;;;1.93;1.40;;;14.50;1.00;;;;;;4935216;29;20445;-45
2022/11/04 12:32:20;;;;;;;2.60;0.90;;;15.40;1.00;;;;;;4935439;29;20426;-44
2022/11/04 12:34:58;;;;;;;8.97;1.37;;;16.50;1.00;;;;;;4934974;29;20438;-44
2022/11/04 12:37:52;;;;;;;4.00;1.07;;;17.50;1.00;;;;;;4935135;29;20933;-45
2022/11/04 12:40:42;;;;;;;3.00;1.10;;;18.70;1.00;;;;;;4916272;29;20426;-45
2022/11/04 12:43:36;;;;;;;4.63;1.40;;;18.90;1.00;;;;;;4919646;29;20418;-45
2022/11/04 12:46:17;;;;;;;7.80;1.40;;;18.00;1.00;;;;;;4934832;29;20427;-45
2022/11/04 12:49:21;;;;;;;3.40;1.20;;;16.90;1.00;;;;;;4934916;29;20981;-45
2022/11/04 12:52:12;;;;;;;3.23;1.30;;;16.40;1.00;;;;;;4931059;29;20496;-45
2022/11/04 12:54:55;;;;;;;2.97;1.30;;;16.60;1.00;;;;;;4934368;29;20430;-45
2022/11/04 12:57:46;;;;;;;3.93;1.30;;;17.00;1.00;;;;;;4934593;29;20936;-44
2022/11/04 13:00:14;;;;;;;4.30;1.43;;;16.90;1.00;;;;;;4935259;29;20426;-45
2022/11/04 13:02:58;;;;;;;3.83;1.33;;;17.00;1.00;;;;;;4934756;29;20434;-45
2022/11/04 13:05:27;;;;;;;3.13;1.17;;;16.80;1.00;;;;;;4934772;29;20406;-45
2022/11/04 13:08:18;;;;;;;3.53;1.13;;;17.00;1.00;;;;;;4934552;29;20457;-45
2022/11/04 13:10:57;;;;;;;6.50;2.17;;;17.50;1.00;;;;;;4934294;29;20422;-45
2022/11/04 13:13:31;;;;;;;4.37;1.20;;;17.70;1.00;;;;;;4928407;29;20463;-44
2022/11/04 13:16:02;;;;;;;8.03;1.50;;;17.30;1.00;;;;;;4935752;29;20424;-45
2022/11/04 13:18:31;;;;;;;6.03;1.30;;;16.40;1.00;;;;;;4934032;29;20557;-45
2022/11/04 13:21:12;;;;;;;6.90;1.67;;;15.70;1.00;;;;;;4934376;29;20516;-45
2022/11/04 13:23:47;;;;;;;3.00;1.07;;;15.10;1.00;;;;;;4932969;29;21192;-45
2022/11/04 13:26:16;;;;;;;4.80;1.20;;;14.80;1.00;;;;;;4934345;29;20414;-45
2022/11/04 13:28:45;;;;;;;8.57;1.60;;;14.50;1.00;;;;;;4934262;29;20461;-45
2022/11/04 13:31:14;;;;;;;3.73;1.10;;;14.40;1.00;;;;;;4934293;29;20462;-45
2022/11/04 13:33:42;;;;;;;4.37;1.10;;;14.40;1.00;;;;;;4934055;29;20422;-45
2022/11/04 13:36:37;;;;;;;7.13;1.60;;;14.60;1.00;;;;;;4934290;29;20438;-45
2022/11/04 13:39:18;;;;;;;6.00;1.50;;;14.70;1.00;;;;;;4933742;29;20617;-45
2022/11/04 13:42:04;;;;;;;2.97;1.50;;;14.70;1.00;;;;;;4933006;29;20422;-45